sensor_id;sensor_type;location;lat;lon;timestamp;P1;durP1;ratioP1;P2;durP2;ratioP2
4391;SDS011;2210;51.938;8.488;2024-01-11T00:02:56;16.27;;;9.82;;
4391;SDS011;2210;51.938;8.488;2024-01-11T00:06:56;16.60;;;10.57;;
4391;SDS011;2210;51.938;8.488;2024-01-11T00:10:56;15.60;;;10.27;;
4391;SDS011;2210;51.938;8.488;2024-01-11T00:14:57;16.85;;;9.93;;
4391;SDS011;2210;51.938;8.488;2024-01-11T00:18:59;15.80;;;9.80;;
4391;SDS011;2210;51.938;8.488;2024-01-11T00:23:00;19.23;;;10.93;;
4391;SDS011;2210;51.938;8.488;2024-01-11T00:27:00;17.00;;;9.93;;
4391;SDS011;2210;51.938;8.488;2024-01-11T00:31:00;16.02;;;9.23;;
4391;SDS011;2210;51.938;8.488;2024-01-11T00:35:01;15.63;;;9.93;;
4391;SDS011;2210;51.938;8.488;2024-01-11T00:39:01;16.10;;;8.48;;
4391;SDS011;2210;51.938;8.488;2024-01-11T00:43:01;14.25;;;8.45;;
4391;SDS011;2210;51.938;8.488;2024-01-11T00:47:01;13.00;;;8.20;;
4391;SDS011;2210;51.938;8.488;2024-01-11T00:51:03;17.60;;;9.07;;
4391;SDS011;2210;51.938;8.488;2024-01-11T00:55:04;16.80;;;9.37;;
4391;SDS011;2210;51.938;8.488;2024-01-11T00:59:05;12.70;;;8.27;;
4391;SDS011;2210;51.938;8.488;2024-01-11T01:03:05;14.50;;;9.20;;
4391;SDS011;2210;51.938;8.488;2024-01-11T01:07:06;13.93;;;8.37;;
4391;SDS011;2210;51.938;8.488;2024-01-11T01:11:07;15.17;;;9.53;;
4391;SDS011;2210;51.938;8.488;2024-01-11T01:15:07;16.08;;;9.40;;
4391;SDS011;2210;51.938;8.488;2024-01-11T01:19:07;16.73;;;8.93;;
4391;SDS011;2210;51.938;8.488;2024-01-11T01:23:08;14.05;;;8.88;;
4391;SDS011;2210;51.938;8.488;2024-01-11T01:27:08;18.50;;;10.10;;
4391;SDS011;2210;51.938;8.488;2024-01-11T01:31:09;14.70;;;9.25;;
4391;SDS011;2210;51.938;8.488;2024-01-11T01:35:09;18.03;;;10.10;;
4391;SDS011;2210;51.938;8.488;2024-01-11T01:39:09;16.80;;;9.60;;
4391;SDS011;2210;51.938;8.488;2024-01-11T01:43:10;19.20;;;9.73;;
4391;SDS011;2210;51.938;8.488;2024-01-11T01:47:10;16.40;;;8.80;;
4391;SDS011;2210;51.938;8.488;2024-01-11T01:51:11;15.87;;;9.10;;
4391;SDS011;2210;51.938;8.488;2024-01-11T01:55:12;15.10;;;9.00;;
4391;SDS011;2210;51.938;8.488;2024-01-11T01:59:14;15.90;;;8.57;;
4391;SDS011;2210;51.938;8.488;2024-01-11T02:03:15;15.10;;;8.10;;
4391;SDS011;2210;51.938;8.488;2024-01-11T02:07:16;11.07;;;7.97;;
4391;SDS011;2210;51.938;8.488;2024-01-11T02:11:19;16.63;;;9.07;;
4391;SDS011;2210;51.938;8.488;2024-01-11T02:15:20;17.10;;;9.60;;
4391;SDS011;2210;51.938;8.488;2024-01-11T02:19:26;14.73;;;9.33;;
4391;SDS011;2210;51.938;8.488;2024-01-11T02:23:26;13.23;;;8.27;;
4391;SDS011;2210;51.938;8.488;2024-01-11T02:27:27;16.47;;;8.80;;
4391;SDS011;2210;51.938;8.488;2024-01-11T02:31:28;12.97;;;8.43;;
4391;SDS011;2210;51.938;8.488;2024-01-11T02:35:28;15.07;;;9.30;;
4391;SDS011;2210;51.938;8.488;2024-01-11T02:39:29;15.20;;;8.80;;
4391;SDS011;2210;51.938;8.488;2024-01-11T02:43:29;15.50;;;8.80;;
4391;SDS011;2210;51.938;8.488;2024-01-11T02:47:29;16.20;;;8.57;;
4391;SDS011;2210;51.938;8.488;2024-01-11T02:51:30;15.83;;;10.40;;
4391;SDS011;2210;51.938;8.488;2024-01-11T02:55:30;17.40;;;9.90;;
4391;SDS011;2210;51.938;8.488;2024-01-11T02:59:33;14.40;;;8.50;;
4391;SDS011;2210;51.938;8.488;2024-01-11T03:03:34;20.70;;;9.60;;
4391;SDS011;2210;51.938;8.488;2024-01-11T03:07:34;14.20;;;8.50;;
4391;SDS011;2210;51.938;8.488;2024-01-11T03:11:34;12.33;;;8.33;;
4391;SDS011;2210;51.938;8.488;2024-01-11T03:15:35;20.90;;;9.27;;
4391;SDS011;2210;51.938;8.488;2024-01-11T03:19:38;18.13;;;9.57;;
4391;SDS011;2210;51.938;8.488;2024-01-11T03:23:40;12.20;;;7.77;;
4391;SDS011;2210;51.938;8.488;2024-01-11T03:27:40;15.20;;;8.40;;
4391;SDS011;2210;51.938;8.488;2024-01-11T03:31:40;13.77;;;8.32;;
4391;SDS011;2210;51.938;8.488;2024-01-11T03:35:42;16.90;;;9.23;;
4391;SDS011;2210;51.938;8.488;2024-01-11T03:39:43;13.10;;;8.17;;
4391;SDS011;2210;51.938;8.488;2024-01-11T03:43:44;12.47;;;8.80;;
4391;SDS011;2210;51.938;8.488;2024-01-11T03:47:44;13.55;;;7.40;;
4391;SDS011;2210;51.938;8.488;2024-01-11T03:51:47;14.70;;;8.40;;
4391;SDS011;2210;51.938;8.488;2024-01-11T03:55:50;12.33;;;8.17;;
4391;SDS011;2210;51.938;8.488;2024-01-11T03:59:50;14.37;;;8.53;;
4391;SDS011;2210;51.938;8.488;2024-01-11T04:03:51;18.73;;;9.20;;
4391;SDS011;2210;51.938;8.488;2024-01-11T04:07:51;14.10;;;8.73;;
4391;SDS011;2210;51.938;8.488;2024-01-11T04:11:51;15.13;;;8.73;;
4391;SDS011;2210;51.938;8.488;2024-01-11T04:15:51;15.45;;;9.00;;
4391;SDS011;2210;51.938;8.488;2024-01-11T04:19:52;14.43;;;8.70;;
4391;SDS011;2210;51.938;8.488;2024-01-11T04:23:52;11.53;;;8.03;;
4391;SDS011;2210;51.938;8.488;2024-01-11T04:27:53;14.63;;;8.30;;
4391;SDS011;2210;51.938;8.488;2024-01-11T04:31:53;13.63;;;7.90;;
4391;SDS011;2210;51.938;8.488;2024-01-11T04:35:53;13.90;;;8.38;;
4391;SDS011;2210;51.938;8.488;2024-01-11T04:39:53;16.08;;;8.38;;
4391;SDS011;2210;51.938;8.488;2024-01-11T04:43:55;16.20;;;8.87;;
4391;SDS011;2210;51.938;8.488;2024-01-11T04:47:55;13.57;;;8.70;;
4391;SDS011;2210;51.938;8.488;2024-01-11T04:51:55;16.60;;;9.50;;
4391;SDS011;2210;51.938;8.488;2024-01-11T04:55:55;14.75;;;8.18;;
4391;SDS011;2210;51.938;8.488;2024-01-11T04:59:56;15.65;;;8.82;;
4391;SDS011;2210;51.938;8.488;2024-01-11T05:03:56;17.07;;;9.97;;
4391;SDS011;2210;51.938;8.488;2024-01-11T05:07:56;16.27;;;8.27;;
4391;SDS011;2210;51.938;8.488;2024-01-11T05:12:00;16.47;;;9.23;;
4391;SDS011;2210;51.938;8.488;2024-01-11T05:16:03;15.97;;;9.00;;
4391;SDS011;2210;51.938;8.488;2024-01-11T05:20:10;14.20;;;8.90;;
4391;SDS011;2210;51.938;8.488;2024-01-11T05:24:10;14.70;;;8.53;;
4391;SDS011;2210;51.938;8.488;2024-01-11T05:28:14;13.75;;;7.45;;
4391;SDS011;2210;51.938;8.488;2024-01-11T05:32:14;15.50;;;7.73;;
4391;SDS011;2210;51.938;8.488;2024-01-11T05:36:14;13.30;;;8.57;;
4391;SDS011;2210;51.938;8.488;2024-01-11T05:40:14;15.03;;;8.80;;
4391;SDS011;2210;51.938;8.488;2024-01-11T05:44:15;13.70;;;8.27;;
4391;SDS011;2210;51.938;8.488;2024-01-11T05:48:15;12.17;;;6.90;;
4391;SDS011;2210;51.938;8.488;2024-01-11T05:52:16;13.13;;;9.10;;
4391;SDS011;2210;51.938;8.488;2024-01-11T05:56:16;14.20;;;9.23;;
4391;SDS011;2210;51.938;8.488;2024-01-11T06:00:19;16.93;;;9.37;;
4391;SDS011;2210;51.938;8.488;2024-01-11T06:04:19;16.10;;;8.47;;
4391;SDS011;2210;51.938;8.488;2024-01-11T06:08:19;17.67;;;9.48;;
4391;SDS011;2210;51.938;8.488;2024-01-11T06:12:20;19.65;;;9.77;;
4391;SDS011;2210;51.938;8.488;2024-01-11T06:16:20;12.90;;;8.67;;
4391;SDS011;2210;51.938;8.488;2024-01-11T06:20:21;14.95;;;8.60;;
4391;SDS011;2210;51.938;8.488;2024-01-11T06:24:21;16.25;;;8.60;;
4391;SDS011;2210;51.938;8.488;2024-01-11T06:28:21;15.95;;;9.43;;
4391;SDS011;2210;51.938;8.488;2024-01-11T06:32:21;13.67;;;8.50;;
4391;SDS011;2210;51.938;8.488;2024-01-11T06:36:21;19.65;;;9.98;;
4391;SDS011;2210;51.938;8.488;2024-01-11T06:40:22;13.27;;;7.90;;
4391;SDS011;2210;51.938;8.488;2024-01-11T06:44:22;16.27;;;9.17;;
4391;SDS011;2210;51.938;8.488;2024-01-11T06:48:22;18.05;;;10.55;;
4391;SDS011;2210;51.938;8.488;2024-01-11T06:52:23;19.53;;;9.90;;
4391;SDS011;2210;51.938;8.488;2024-01-11T06:56:23;14.27;;;8.67;;
4391;SDS011;2210;51.938;8.488;2024-01-11T07:00:23;15.67;;;9.00;;
4391;SDS011;2210;51.938;8.488;2024-01-11T07:04:24;13.35;;;8.00;;
4391;SDS011;2210;51.938;8.488;2024-01-11T07:08:24;13.25;;;8.10;;
4391;SDS011;2210;51.938;8.488;2024-01-11T07:12:24;16.08;;;8.32;;
4391;SDS011;2210;51.938;8.488;2024-01-11T07:16:28;15.13;;;8.23;;
4391;SDS011;2210;51.938;8.488;2024-01-11T07:20:28;12.38;;;8.63;;
4391;SDS011;2210;51.938;8.488;2024-01-11T07:24:28;15.47;;;8.97;;
4391;SDS011;2210;51.938;8.488;2024-01-11T07:28:37;18.50;;;8.90;;
4391;SDS011;2210;51.938;8.488;2024-01-11T07:32:37;22.57;;;10.53;;
4391;SDS011;2210;51.938;8.488;2024-01-11T07:36:37;18.30;;;10.20;;
4391;SDS011;2210;51.938;8.488;2024-01-11T07:40:38;16.75;;;9.65;;
4391;SDS011;2210;51.938;8.488;2024-01-11T07:44:38;17.63;;;9.23;;
4391;SDS011;2210;51.938;8.488;2024-01-11T07:48:38;16.47;;;9.60;;
4391;SDS011;2210;51.938;8.488;2024-01-11T07:52:39;16.03;;;9.37;;
4391;SDS011;2210;51.938;8.488;2024-01-11T07:56:42;12.67;;;8.50;;
4391;SDS011;2210;51.938;8.488;2024-01-11T08:00:42;12.27;;;9.20;;
4391;SDS011;2210;51.938;8.488;2024-01-11T08:04:43;16.13;;;9.33;;
4391;SDS011;2210;51.938;8.488;2024-01-11T08:08:43;14.32;;;8.05;;
4391;SDS011;2210;51.938;8.488;2024-01-11T08:12:44;16.83;;;9.40;;
4391;SDS011;2210;51.938;8.488;2024-01-11T08:16:44;14.07;;;9.73;;
4391;SDS011;2210;51.938;8.488;2024-01-11T08:20:44;12.10;;;8.90;;
4391;SDS011;2210;51.938;8.488;2024-01-11T08:24:44;15.32;;;8.98;;
4391;SDS011;2210;51.938;8.488;2024-01-11T08:28:45;14.68;;;9.63;;
4391;SDS011;2210;51.938;8.488;2024-01-11T08:32:45;15.80;;;8.47;;
4391;SDS011;2210;51.938;8.488;2024-01-11T08:36:45;21.08;;;10.18;;
4391;SDS011;2210;51.938;8.488;2024-01-11T08:40:46;19.43;;;9.87;;
4391;SDS011;2210;51.938;8.488;2024-01-11T08:44:47;15.15;;;9.35;;
4391;SDS011;2210;51.938;8.488;2024-01-11T08:48:47;17.10;;;9.70;;
4391;SDS011;2210;51.938;8.488;2024-01-11T08:52:47;20.45;;;10.13;;
4391;SDS011;2210;51.938;8.488;2024-01-11T08:56:48;11.93;;;8.40;;
4391;SDS011;2210;51.938;8.488;2024-01-11T09:00:48;13.98;;;8.40;;
4391;SDS011;2210;51.938;8.488;2024-01-11T09:04:49;14.10;;;8.52;;
4391;SDS011;2210;51.938;8.488;2024-01-11T09:08:49;19.63;;;9.07;;
4391;SDS011;2210;51.938;8.488;2024-01-11T09:12:49;12.80;;;8.45;;
4391;SDS011;2210;51.938;8.488;2024-01-11T09:16:49;14.80;;;8.67;;
4391;SDS011;2210;51.938;8.488;2024-01-11T09:20:50;16.15;;;8.40;;
4391;SDS011;2210;51.938;8.488;2024-01-11T09:24:50;14.50;;;8.90;;
4391;SDS011;2210;51.938;8.488;2024-01-11T09:28:50;13.67;;;8.97;;
4391;SDS011;2210;51.938;8.488;2024-01-11T09:32:51;12.35;;;8.55;;
4391;SDS011;2210;51.938;8.488;2024-01-11T09:36:51;16.00;;;8.93;;
4391;SDS011;2210;51.938;8.488;2024-01-11T09:41:01;11.97;;;7.67;;
4391;SDS011;2210;51.938;8.488;2024-01-11T09:45:09;16.80;;;8.63;;
4391;SDS011;2210;51.938;8.488;2024-01-11T09:49:12;15.20;;;8.83;;
4391;SDS011;2210;51.938;8.488;2024-01-11T09:53:13;18.00;;;9.37;;
4391;SDS011;2210;51.938;8.488;2024-01-11T09:57:16;13.53;;;8.87;;
4391;SDS011;2210;51.938;8.488;2024-01-11T10:01:23;12.37;;;9.27;;
4391;SDS011;2210;51.938;8.488;2024-01-11T10:05:24;14.50;;;9.10;;
4391;SDS011;2210;51.938;8.488;2024-01-11T10:09:28;15.43;;;8.10;;
4391;SDS011;2210;51.938;8.488;2024-01-11T10:13:32;14.40;;;9.03;;
4391;SDS011;2210;51.938;8.488;2024-01-11T10:17:33;17.53;;;9.47;;
4391;SDS011;2210;51.938;8.488;2024-01-11T10:21:33;11.57;;;8.18;;
4391;SDS011;2210;51.938;8.488;2024-01-11T10:25:33;20.53;;;9.10;;
4391;SDS011;2210;51.938;8.488;2024-01-11T10:29:33;15.73;;;8.93;;
4391;SDS011;2210;51.938;8.488;2024-01-11T10:33:36;14.90;;;8.33;;
4391;SDS011;2210;51.938;8.488;2024-01-11T10:37:37;12.87;;;7.80;;
4391;SDS011;2210;51.938;8.488;2024-01-11T10:41:57;13.30;;;7.60;;
4391;SDS011;2210;51.938;8.488;2024-01-11T10:46:07;8.30;;;5.40;;
4391;SDS011;2210;51.938;8.488;2024-01-11T10:50:12;11.10;;;5.73;;
4391;SDS011;2210;51.938;8.488;2024-01-11T10:54:14;8.20;;;5.30;;
4391;SDS011;2210;51.938;8.488;2024-01-11T10:58:14;6.33;;;4.33;;
4391;SDS011;2210;51.938;8.488;2024-01-11T11:02:16;8.77;;;4.73;;
4391;SDS011;2210;51.938;8.488;2024-01-11T11:06:17;6.30;;;4.53;;
4391;SDS011;2210;51.938;8.488;2024-01-11T11:10:19;6.60;;;3.97;;
4391;SDS011;2210;51.938;8.488;2024-01-11T11:14:20;5.37;;;4.00;;
4391;SDS011;2210;51.938;8.488;2024-01-11T11:18:22;5.70;;;3.67;;
4391;SDS011;2210;51.938;8.488;2024-01-11T11:22:22;6.23;;;3.80;;
4391;SDS011;2210;51.938;8.488;2024-01-11T11:26:22;3.90;;;3.07;;
4391;SDS011;2210;51.938;8.488;2024-01-11T11:30:27;4.93;;;3.20;;
4391;SDS011;2210;51.938;8.488;2024-01-11T11:34:40;4.67;;;2.70;;
4391;SDS011;2210;51.938;8.488;2024-01-11T11:38:42;4.03;;;3.37;;
4391;SDS011;2210;51.938;8.488;2024-01-11T11:42:42;4.20;;;3.17;;
4391;SDS011;2210;51.938;8.488;2024-01-11T11:46:45;4.97;;;3.47;;
4391;SDS011;2210;51.938;8.488;2024-01-11T11:50:47;3.50;;;3.20;;
4391;SDS011;2210;51.938;8.488;2024-01-11T11:55:00;4.90;;;3.00;;
4391;SDS011;2210;51.938;8.488;2024-01-11T11:59:01;5.70;;;3.50;;
4391;SDS011;2210;51.938;8.488;2024-01-11T12:03:03;6.03;;;3.23;;
4391;SDS011;2210;51.938;8.488;2024-01-11T12:07:04;2.90;;;2.67;;
4391;SDS011;2210;51.938;8.488;2024-01-11T12:11:05;5.30;;;3.70;;
4391;SDS011;2210;51.938;8.488;2024-01-11T12:15:05;7.83;;;3.97;;
4391;SDS011;2210;51.938;8.488;2024-01-11T12:19:06;11.57;;;4.13;;
4391;SDS011;2210;51.938;8.488;2024-01-11T12:23:06;7.63;;;3.90;;
4391;SDS011;2210;51.938;8.488;2024-01-11T12:27:07;5.20;;;3.50;;
4391;SDS011;2210;51.938;8.488;2024-01-11T12:31:07;8.70;;;4.77;;
4391;SDS011;2210;51.938;8.488;2024-01-11T12:35:10;6.00;;;3.67;;
4391;SDS011;2210;51.938;8.488;2024-01-11T12:39:14;5.17;;;3.60;;
4391;SDS011;2210;51.938;8.488;2024-01-11T12:43:16;4.93;;;3.50;;
4391;SDS011;2210;51.938;8.488;2024-01-11T12:47:17;8.00;;;4.07;;
4391;SDS011;2210;51.938;8.488;2024-01-11T12:51:21;5.97;;;4.63;;
4391;SDS011;2210;51.938;8.488;2024-01-11T12:55:21;8.90;;;4.90;;
4391;SDS011;2210;51.938;8.488;2024-01-11T12:59:25;11.07;;;5.70;;
4391;SDS011;2210;51.938;8.488;2024-01-11T13:03:25;9.73;;;5.33;;
4391;SDS011;2210;51.938;8.488;2024-01-11T13:07:30;7.33;;;4.43;;
4391;SDS011;2210;51.938;8.488;2024-01-11T13:11:30;7.43;;;5.23;;
4391;SDS011;2210;51.938;8.488;2024-01-11T13:15:31;10.33;;;5.50;;
4391;SDS011;2210;51.938;8.488;2024-01-11T13:19:31;8.80;;;5.57;;
4391;SDS011;2210;51.938;8.488;2024-01-11T13:23:32;7.03;;;5.13;;
4391;SDS011;2210;51.938;8.488;2024-01-11T13:27:32;7.67;;;4.83;;
4391;SDS011;2210;51.938;8.488;2024-01-11T13:31:33;8.50;;;6.07;;
4391;SDS011;2210;51.938;8.488;2024-01-11T13:35:36;8.43;;;4.87;;
4391;SDS011;2210;51.938;8.488;2024-01-11T13:39:38;11.93;;;5.67;;
4391;SDS011;2210;51.938;8.488;2024-01-11T13:43:38;8.13;;;5.33;;
4391;SDS011;2210;51.938;8.488;2024-01-11T13:47:38;9.50;;;4.97;;
4391;SDS011;2210;51.938;8.488;2024-01-11T13:51:38;7.27;;;4.97;;
4391;SDS011;2210;51.938;8.488;2024-01-11T13:55:39;11.55;;;6.70;;
4391;SDS011;2210;51.938;8.488;2024-01-11T13:59:39;12.03;;;7.63;;
4391;SDS011;2210;51.938;8.488;2024-01-11T14:03:39;11.70;;;6.07;;
4391;SDS011;2210;51.938;8.488;2024-01-11T14:07:49;9.80;;;6.00;;
4391;SDS011;2210;51.938;8.488;2024-01-11T14:11:54;9.80;;;5.80;;
4391;SDS011;2210;51.938;8.488;2024-01-11T14:15:54;13.10;;;6.10;;
4391;SDS011;2210;51.938;8.488;2024-01-11T14:19:54;11.93;;;7.40;;
4391;SDS011;2210;51.938;8.488;2024-01-11T14:23:55;10.07;;;6.50;;
4391;SDS011;2210;51.938;8.488;2024-01-11T14:27:55;9.30;;;6.07;;
4391;SDS011;2210;51.938;8.488;2024-01-11T14:31:59;10.60;;;6.27;;
4391;SDS011;2210;51.938;8.488;2024-01-11T14:35:59;9.70;;;5.70;;
4391;SDS011;2210;51.938;8.488;2024-01-11T14:40:00;11.60;;;6.07;;
4391;SDS011;2210;51.938;8.488;2024-01-11T14:44:01;11.63;;;7.40;;
4391;SDS011;2210;51.938;8.488;2024-01-11T14:48:01;12.67;;;6.20;;
4391;SDS011;2210;51.938;8.488;2024-01-11T14:52:02;11.10;;;6.27;;
4391;SDS011;2210;51.938;8.488;2024-01-11T14:56:03;11.60;;;6.67;;
4391;SDS011;2210;51.938;8.488;2024-01-11T15:00:03;11.43;;;6.10;;
4391;SDS011;2210;51.938;8.488;2024-01-11T15:04:04;9.97;;;5.50;;
4391;SDS011;2210;51.938;8.488;2024-01-11T15:08:05;8.97;;;5.60;;
4391;SDS011;2210;51.938;8.488;2024-01-11T15:12:05;13.43;;;6.33;;
4391;SDS011;2210;51.938;8.488;2024-01-11T15:16:06;11.93;;;6.30;;
4391;SDS011;2210;51.938;8.488;2024-01-11T15:20:07;13.10;;;6.67;;
4391;SDS011;2210;51.938;8.488;2024-01-11T15:24:08;10.03;;;6.43;;
4391;SDS011;2210;51.938;8.488;2024-01-11T15:28:08;11.82;;;7.20;;
4391;SDS011;2210;51.938;8.488;2024-01-11T15:32:08;10.97;;;6.80;;
4391;SDS011;2210;51.938;8.488;2024-01-11T15:36:10;11.13;;;7.00;;
4391;SDS011;2210;51.938;8.488;2024-01-11T15:40:10;9.20;;;6.40;;
4391;SDS011;2210;51.938;8.488;2024-01-11T15:44:11;16.10;;;7.20;;
4391;SDS011;2210;51.938;8.488;2024-01-11T15:48:11;15.90;;;6.20;;
4391;SDS011;2210;51.938;8.488;2024-01-11T15:52:11;14.67;;;7.73;;
4391;SDS011;2210;51.938;8.488;2024-01-11T15:56:11;10.73;;;7.10;;
4391;SDS011;2210;51.938;8.488;2024-01-11T16:00:12;14.83;;;7.90;;
4391;SDS011;2210;51.938;8.488;2024-01-11T16:04:13;15.47;;;8.27;;
4391;SDS011;2210;51.938;8.488;2024-01-11T16:08:13;19.70;;;9.33;;
4391;SDS011;2210;51.938;8.488;2024-01-11T16:12:14;15.83;;;9.03;;
4391;SDS011;2210;51.938;8.488;2024-01-11T16:16:14;19.02;;;7.55;;
4391;SDS011;2210;51.938;8.488;2024-01-11T16:20:15;14.00;;;8.57;;
4391;SDS011;2210;51.938;8.488;2024-01-11T16:24:15;13.63;;;8.23;;
4391;SDS011;2210;51.938;8.488;2024-01-11T16:28:15;12.03;;;8.27;;
4391;SDS011;2210;51.938;8.488;2024-01-11T16:32:16;11.70;;;8.13;;
4391;SDS011;2210;51.938;8.488;2024-01-11T16:36:17;14.63;;;8.20;;
4391;SDS011;2210;51.938;8.488;2024-01-11T16:40:17;13.67;;;8.40;;
4391;SDS011;2210;51.938;8.488;2024-01-11T16:44:18;12.40;;;8.40;;
4391;SDS011;2210;51.938;8.488;2024-01-11T16:48:18;17.77;;;11.47;;
4391;SDS011;2210;51.938;8.488;2024-01-11T16:52:18;15.53;;;9.07;;
4391;SDS011;2210;51.938;8.488;2024-01-11T16:56:20;16.00;;;8.47;;
4391;SDS011;2210;51.938;8.488;2024-01-11T17:00:42;21.87;;;9.80;;
4391;SDS011;2210;51.938;8.488;2024-01-11T17:04:45;14.23;;;8.27;;
4391;SDS011;2210;51.938;8.488;2024-01-11T17:08:45;15.07;;;8.47;;
4391;SDS011;2210;51.938;8.488;2024-01-11T17:12:45;20.70;;;9.60;;
4391;SDS011;2210;51.938;8.488;2024-01-11T17:16:46;18.65;;;10.18;;
4391;SDS011;2210;51.938;8.488;2024-01-11T17:20:46;17.23;;;10.57;;
4391;SDS011;2210;51.938;8.488;2024-01-11T17:24:46;19.23;;;10.97;;
4391;SDS011;2210;51.938;8.488;2024-01-11T17:28:47;19.63;;;11.40;;
4391;SDS011;2210;51.938;8.488;2024-01-11T17:32:47;16.43;;;10.57;;
4391;SDS011;2210;51.938;8.488;2024-01-11T17:36:47;15.73;;;9.37;;
4391;SDS011;2210;51.938;8.488;2024-01-11T17:40:48;18.40;;;10.23;;
4391;SDS011;2210;51.938;8.488;2024-01-11T17:44:48;17.08;;;11.18;;
4391;SDS011;2210;51.938;8.488;2024-01-11T17:48:48;15.52;;;9.82;;
4391;SDS011;2210;51.938;8.488;2024-01-11T17:52:49;14.53;;;9.70;;
4391;SDS011;2210;51.938;8.488;2024-01-11T17:56:49;15.37;;;9.63;;
4391;SDS011;2210;51.938;8.488;2024-01-11T18:00:50;19.07;;;10.93;;
4391;SDS011;2210;51.938;8.488;2024-01-11T18:04:50;20.43;;;10.50;;
4391;SDS011;2210;51.938;8.488;2024-01-11T18:08:50;18.30;;;10.68;;
4391;SDS011;2210;51.938;8.488;2024-01-11T18:12:51;17.88;;;12.02;;
4391;SDS011;2210;51.938;8.488;2024-01-11T18:16:51;20.58;;;12.27;;
4391;SDS011;2210;51.938;8.488;2024-01-11T18:20:51;22.93;;;12.97;;
4391;SDS011;2210;51.938;8.488;2024-01-11T18:24:51;16.30;;;12.10;;
4391;SDS011;2210;51.938;8.488;2024-01-11T18:28:52;26.17;;;14.35;;
4391;SDS011;2210;51.938;8.488;2024-01-11T18:32:53;21.80;;;14.80;;
4391;SDS011;2210;51.938;8.488;2024-01-11T18:36:54;16.90;;;11.30;;
4391;SDS011;2210;51.938;8.488;2024-01-11T18:40:54;21.63;;;11.80;;
4391;SDS011;2210;51.938;8.488;2024-01-11T18:44:54;16.67;;;10.83;;
4391;SDS011;2210;51.938;8.488;2024-01-11T18:48:57;16.00;;;11.57;;
4391;SDS011;2210;51.938;8.488;2024-01-11T18:52:57;17.65;;;10.52;;
4391;SDS011;2210;51.938;8.488;2024-01-11T18:56:58;20.45;;;10.25;;
4391;SDS011;2210;51.938;8.488;2024-01-11T19:00:59;19.03;;;9.80;;
4391;SDS011;2210;51.938;8.488;2024-01-11T19:05:00;17.93;;;10.60;;
4391;SDS011;2210;51.938;8.488;2024-01-11T19:09:00;17.20;;;9.82;;
4391;SDS011;2210;51.938;8.488;2024-01-11T19:13:00;14.57;;;10.70;;
4391;SDS011;2210;51.938;8.488;2024-01-11T19:17:01;13.77;;;10.30;;
4391;SDS011;2210;51.938;8.488;2024-01-11T19:21:05;15.27;;;9.90;;
4391;SDS011;2210;51.938;8.488;2024-01-11T19:25:05;19.47;;;10.80;;
4391;SDS011;2210;51.938;8.488;2024-01-11T19:29:06;18.43;;;11.60;;
4391;SDS011;2210;51.938;8.488;2024-01-11T19:33:06;20.07;;;11.47;;
4391;SDS011;2210;51.938;8.488;2024-01-11T19:37:08;19.03;;;11.30;;
4391;SDS011;2210;51.938;8.488;2024-01-11T19:41:12;18.70;;;10.73;;
4391;SDS011;2210;51.938;8.488;2024-01-11T19:45:12;13.40;;;10.00;;
4391;SDS011;2210;51.938;8.488;2024-01-11T19:49:13;14.67;;;9.83;;
4391;SDS011;2210;51.938;8.488;2024-01-11T19:53:13;22.10;;;11.73;;
4391;SDS011;2210;51.938;8.488;2024-01-11T19:57:14;15.30;;;9.50;;
4391;SDS011;2210;51.938;8.488;2024-01-11T20:01:15;18.77;;;10.70;;
4391;SDS011;2210;51.938;8.488;2024-01-11T20:05:16;17.33;;;10.00;;
4391;SDS011;2210;51.938;8.488;2024-01-11T20:09:16;13.23;;;9.33;;
4391;SDS011;2210;51.938;8.488;2024-01-11T20:13:18;16.97;;;9.40;;
4391;SDS011;2210;51.938;8.488;2024-01-11T20:17:18;13.43;;;9.00;;
4391;SDS011;2210;51.938;8.488;2024-01-11T20:21:18;15.30;;;9.87;;
4391;SDS011;2210;51.938;8.488;2024-01-11T20:25:18;15.87;;;8.97;;
4391;SDS011;2210;51.938;8.488;2024-01-11T20:29:19;19.87;;;10.50;;
4391;SDS011;2210;51.938;8.488;2024-01-11T20:33:19;16.03;;;10.17;;
4391;SDS011;2210;51.938;8.488;2024-01-11T20:37:20;17.63;;;9.45;;
4391;SDS011;2210;51.938;8.488;2024-01-11T20:41:20;15.97;;;10.67;;
4391;SDS011;2210;51.938;8.488;2024-01-11T20:45:21;14.30;;;10.00;;
4391;SDS011;2210;51.938;8.488;2024-01-11T20:49:21;13.38;;;9.32;;
4391;SDS011;2210;51.938;8.488;2024-01-11T20:53:21;15.40;;;10.18;;
4391;SDS011;2210;51.938;8.488;2024-01-11T20:57:21;15.43;;;9.57;;
4391;SDS011;2210;51.938;8.488;2024-01-11T21:01:22;18.35;;;10.38;;
4391;SDS011;2210;51.938;8.488;2024-01-11T21:05:22;18.65;;;10.63;;
4391;SDS011;2210;51.938;8.488;2024-01-11T21:09:24;16.40;;;11.40;;
4391;SDS011;2210;51.938;8.488;2024-01-11T21:13:24;13.23;;;8.90;;
4391;SDS011;2210;51.938;8.488;2024-01-11T21:17:25;17.43;;;8.90;;
4391;SDS011;2210;51.938;8.488;2024-01-11T21:21:25;18.75;;;11.18;;
4391;SDS011;2210;51.938;8.488;2024-01-11T21:25:26;14.70;;;9.03;;
4391;SDS011;2210;51.938;8.488;2024-01-11T21:29:26;16.85;;;10.13;;
4391;SDS011;2210;51.938;8.488;2024-01-11T21:33:26;16.73;;;9.82;;
4391;SDS011;2210;51.938;8.488;2024-01-11T21:37:27;15.07;;;9.95;;
4391;SDS011;2210;51.938;8.488;2024-01-11T21:41:27;17.77;;;10.63;;
4391;SDS011;2210;51.938;8.488;2024-01-11T21:45:27;16.08;;;9.90;;
4391;SDS011;2210;51.938;8.488;2024-01-11T21:49:27;15.40;;;9.00;;
4391;SDS011;2210;51.938;8.488;2024-01-11T21:53:28;15.20;;;9.80;;
4391;SDS011;2210;51.938;8.488;2024-01-11T21:57:29;15.10;;;10.00;;
4391;SDS011;2210;51.938;8.488;2024-01-11T22:01:30;18.25;;;10.32;;
4391;SDS011;2210;51.938;8.488;2024-01-11T22:05:34;15.10;;;9.63;;
4391;SDS011;2210;51.938;8.488;2024-01-11T22:09:34;18.17;;;10.47;;
4391;SDS011;2210;51.938;8.488;2024-01-11T22:13:35;18.42;;;9.73;;
4391;SDS011;2210;51.938;8.488;2024-01-11T22:17:35;19.97;;;10.57;;
4391;SDS011;2210;51.938;8.488;2024-01-11T22:21:38;15.07;;;9.73;;
4391;SDS011;2210;51.938;8.488;2024-01-11T22:25:39;15.23;;;9.73;;
4391;SDS011;2210;51.938;8.488;2024-01-11T22:29:39;17.83;;;11.10;;
4391;SDS011;2210;51.938;8.488;2024-01-11T22:33:40;19.25;;;11.13;;
4391;SDS011;2210;51.938;8.488;2024-01-11T22:37:43;16.42;;;9.88;;
4391;SDS011;2210;51.938;8.488;2024-01-11T22:41:43;14.43;;;9.67;;
4391;SDS011;2210;51.938;8.488;2024-01-11T22:45:43;16.98;;;9.65;;
4391;SDS011;2210;51.938;8.488;2024-01-11T22:49:44;20.02;;;10.25;;
4391;SDS011;2210;51.938;8.488;2024-01-11T22:53:44;20.23;;;10.43;;
4391;SDS011;2210;51.938;8.488;2024-01-11T22:57:44;13.73;;;10.70;;
4391;SDS011;2210;51.938;8.488;2024-01-11T23:01:45;21.20;;;10.10;;
4391;SDS011;2210;51.938;8.488;2024-01-11T23:05:45;23.17;;;11.20;;
4391;SDS011;2210;51.938;8.488;2024-01-11T23:09:45;18.13;;;10.93;;
4391;SDS011;2210;51.938;8.488;2024-01-11T23:13:46;20.10;;;10.70;;
4391;SDS011;2210;51.938;8.488;2024-01-11T23:17:46;19.30;;;9.93;;
4391;SDS011;2210;51.938;8.488;2024-01-11T23:21:46;21.30;;;10.80;;
4391;SDS011;2210;51.938;8.488;2024-01-11T23:25:47;21.13;;;9.83;;
4391;SDS011;2210;51.938;8.488;2024-01-11T23:29:47;18.90;;;11.87;;
4391;SDS011;2210;51.938;8.488;2024-01-11T23:33:47;18.35;;;11.35;;
4391;SDS011;2210;51.938;8.488;2024-01-11T23:37:48;21.60;;;11.97;;
4391;SDS011;2210;51.938;8.488;2024-01-11T23:41:48;20.30;;;12.10;;
4391;SDS011;2210;51.938;8.488;2024-01-11T23:45:49;22.92;;;11.60;;
4391;SDS011;2210;51.938;8.488;2024-01-11T23:49:49;22.90;;;11.00;;
4391;SDS011;2210;51.938;8.488;2024-01-11T23:53:49;21.73;;;12.17;;
4391;SDS011;2210;51.938;8.488;2024-01-11T23:57:50;19.53;;;11.77;;
